Bellburn, West Virginia
Current Conditions -  °F | °C
As of 11:15 AM on Monday 26 Jan 2015 (Local Time) from KLWB Reporting Station
Light Rain Light Rain  
Wind Chill: 37°   Ceiling: 1400
Heat Index: 37°   Visibility: 2mi
Dew Point: 36°   Wind: 0mph
Humidity: 95%   Direction: NA
Pressure: 29.65"   Gusts: NA
Location:  38.0444°N, 80.7233°W
Report Text: KLWB 261615Z AUTO 00000KT 2SM -RA BKN014 OVC026 03/02 A2965 RMK AO2 T00270020
Loading
Personal Weather Stations






























Interactive Weather Map New forecast layout! Learn more

10-Day Weather Forecast

Advertisements
Track Severe Weather on mobile